Bass, Arkansas
Current Conditions -  °F | °C
As of 1:53 AM on Thursday 18 Dec 2014 (Local Time) from KHRO Reporting Station
Overcast Overcast  
Wind Chill: -4°   Ceiling: 400
Heat Index:   Visibility: 10mi
Dew Point:   Wind: 12mph
Humidity: 96%   Direction: 130°SE
Pressure: 30.18"   Gusts: NA
Location:  35.9°N, 93°W
Report Text: KHRO 180753Z AUTO 13010KT 10SM OVC004 01/00 A3018 RMK AO2 SLP229 T00060000
Loading
Personal Weather Stations






























Interactive Weather Map New forecast layout! Learn more

10-Day Weather Forecast

Advertisements
Track Severe Weather on mobile